Time;durP1;ratioP1;P1;durP2;ratioP2;P2;SDS_P1;SDS_P2;PMS_P1;PMS_P2;Temp;Humidity;BMP_temperature;BMP_pressure;BME280_temperature;BME280_humidity;BME280_pressure;Samples;Min_cycle;Max_cycle;Signal;HPM_P1;HPM_P2
2021/09/22 00:00:54;;;;;;;2.28;1.85;;;24.20;45.20;29.00;94970.00;;;;10230561;28;45339;-62
2021/09/22 00:05:54;;;;;;;3.15;2.00;;;24.20;45.20;29.00;94976.00;;;;10229523;28;55179;-63
2021/09/22 00:10:56;;;;;;;2.08;1.83;;;24.20;45.20;28.90;94957.00;;;;10228715;28;74780;-62
2021/09/22 00:15:56;;;;;;;2.60;2.00;;;24.10;45.10;28.90;94972.00;;;;10229422;28;46736;-63
2021/09/22 00:20:57;;;;;;;2.33;1.88;;;24.10;45.00;28.90;94977.00;;;;10227839;28;48327;-62
2021/09/22 00:25:58;;;;;;;2.80;2.03;;;24.10;45.00;28.90;94973.00;;;;10228126;28;75510;-63
2021/09/22 00:30:59;;;;;;;2.17;1.70;;;24.10;44.90;28.90;94956.00;;;;10229656;28;46368;-64
2021/09/22 00:35:59;;;;;;;2.25;1.83;;;24.10;44.90;28.90;94942.00;;;;10305381;23;61962;-60
2021/09/22 00:41:00;;;;;;;1.83;1.63;;;24.10;45.10;28.90;94934.00;;;;10308342;28;45405;-59
2021/09/22 00:46:04;;;;;;;1.98;1.70;;;24.10;44.90;28.90;94918.00;;;;10308530;28;75372;-60
2021/09/22 00:51:06;;;;;;;2.20;1.95;;;24.10;44.80;28.90;94925.00;;;;10308618;28;45832;-60
2021/09/22 00:56:07;;;;;;;2.63;2.00;;;24.10;44.90;28.90;94925.00;;;;10308049;28;45322;-60
2021/09/22 01:01:08;;;;;;;1.95;1.75;;;24.10;44.80;28.90;94919.00;;;;10302493;28;56259;-59
2021/09/22 01:06:09;;;;;;;2.25;1.80;;;24.10;44.80;28.90;94918.00;;;;10304965;28;73320;-59
2021/09/22 01:11:13;;;;;;;2.33;1.85;;;24.10;44.80;28.90;94930.00;;;;10306696;28;75448;-61
2021/09/22 01:16:13;;;;;;;2.92;2.00;;;24.20;44.80;28.90;94924.00;;;;10306879;28;55034;-62
2021/09/22 01:21:21;;;;;;;2.75;1.85;;;24.10;44.80;28.90;94923.00;;;;10306634;28;75627;-61
2021/09/22 01:26:22;;;;;;;1.98;1.77;;;24.10;44.70;28.90;94919.00;;;;10307728;28;45356;-60
2021/09/22 01:31:22;;;;;;;1.90;1.70;;;24.10;44.70;28.80;94922.00;;;;10312875;28;67136;-60
2021/09/22 01:36:23;;;;;;;1.92;1.70;;;24.10;44.70;28.80;94913.00;;;;10313165;28;63847;-60
2021/09/22 01:41:24;;;;;;;2.00;1.80;;;24.10;44.70;28.90;94907.00;;;;10314957;28;74256;-60
2021/09/22 01:46:25;;;;;;;2.08;1.80;;;24.10;44.60;28.80;94900.00;;;;10313492;28;49409;-60
2021/09/22 01:51:26;;;;;;;2.22;1.90;;;24.10;44.70;28.80;94909.00;;;;10314497;28;55285;-59
2021/09/22 01:56:26;;;;;;;1.88;1.67;;;24.10;44.60;28.80;94895.00;;;;10313601;28;75520;-60
2021/09/22 02:01:27;;;;;;;2.15;1.70;;;24.10;44.60;28.80;94894.00;;;;10312468;28;75564;-61
2021/09/22 02:06:28;;;;;;;2.08;1.70;;;24.10;44.50;28.80;94893.00;;;;10312944;28;75416;-60
2021/09/22 02:11:28;;;;;;;2.55;1.80;;;24.10;44.50;28.80;94890.00;;;;10313048;28;47464;-61
2021/09/22 02:16:29;;;;;;;2.60;1.90;;;24.00;44.50;28.80;94902.00;;;;10310946;28;52852;-58
2021/09/22 02:21:30;;;;;;;2.45;1.80;;;24.10;44.50;28.80;94896.00;;;;10309736;28;54899;-58
2021/09/22 02:26:31;;;;;;;2.30;1.80;;;24.10;44.50;28.80;94901.00;;;;10311973;28;45349;-59
2021/09/22 02:31:31;;;;;;;1.90;1.60;;;24.00;44.40;28.80;94881.00;;;;10312356;28;73549;-61
2021/09/22 02:36:32;;;;;;;2.00;1.75;;;24.00;44.40;28.80;94884.00;;;;10312440;28;73448;-61
2021/09/22 02:41:33;;;;;;;2.03;1.60;;;24.00;44.40;28.80;94877.00;;;;10311688;28;45583;-60
2021/09/22 02:46:34;;;;;;;2.22;1.63;;;24.00;45.00;28.80;94882.00;;;;10312902;28;53743;-60
2021/09/22 02:51:35;;;;;;;2.35;1.75;;;24.00;44.40;28.80;94882.00;;;;10311923;28;45511;-60
2021/09/22 02:56:35;;;;;;;1.90;1.70;;;24.00;44.30;28.80;94880.00;;;;10310917;28;61253;-61
2021/09/22 03:01:36;;;;;;;2.00;1.77;;;24.00;44.30;28.80;94865.00;;;;10310551;28;75620;-60
2021/09/22 03:06:37;;;;;;;2.08;1.60;;;24.00;44.30;28.80;94849.00;;;;10311283;28;68998;-60
2021/09/22 03:11:38;;;;;;;2.08;1.77;;;24.00;44.30;28.80;94860.00;;;;10311657;28;45373;-62
2021/09/22 03:16:38;;;;;;;2.00;1.80;;;24.00;44.30;28.70;94859.00;;;;10310856;28;45424;-60
2021/09/22 03:21:39;;;;;;;1.85;1.60;;;24.00;44.30;28.70;94866.00;;;;10311232;28;74009;-60
2021/09/22 03:26:40;;;;;;;1.83;1.60;;;24.00;44.20;28.70;94852.00;;;;10310105;28;53319;-60
2021/09/22 03:31:42;;;;;;;3.20;1.90;;;24.00;44.20;28.70;94861.00;;;;10311486;28;53960;-60
2021/09/22 03:36:43;;;;;;;1.90;1.63;;;24.00;44.20;28.70;94836.00;;;;10310754;28;45329;-60
2021/09/22 03:41:44;;;;;;;2.15;1.52;;;24.00;44.20;28.70;94850.00;;;;10310337;28;74173;-59
2021/09/22 03:46:44;;;;;;;1.95;1.60;;;24.00;44.30;28.70;94847.00;;;;10309711;28;45427;-61
2021/09/22 03:51:46;;;;;;;2.55;1.70;;;24.00;44.20;28.80;94833.00;;;;10309614;28;63138;-60
2021/09/22 03:56:47;;;;;;;2.10;1.67;;;24.00;44.20;28.80;94840.00;;;;10310640;28;45266;-61
2021/09/22 04:01:47;;;;;;;2.00;1.60;;;24.00;44.10;28.80;94837.00;;;;10309746;28;75512;-61
2021/09/22 04:06:48;;;;;;;1.80;1.60;;;24.00;44.10;28.80;94849.00;;;;10310363;28;45959;-59
2021/09/22 04:11:49;;;;;;;1.60;1.48;;;24.10;44.00;28.80;94844.00;;;;10309575;28;45406;-60
2021/09/22 04:16:50;;;;;;;2.47;1.77;;;24.00;44.00;28.80;94832.00;;;;10308696;28;52309;-60
2021/09/22 04:21:51;;;;;;;1.98;1.48;;;24.00;43.90;28.80;94839.00;;;;10308658;28;54102;-57
2021/09/22 04:26:52;;;;;;;1.90;1.60;;;24.10;44.00;28.80;94829.00;;;;10308853;28;45401;-60
2021/09/22 04:31:52;;;;;;;1.90;1.60;;;24.00;44.00;28.80;94837.00;;;;10309102;28;75960;-58
2021/09/22 04:36:53;;;;;;;2.08;1.63;;;24.00;44.00;28.80;94836.00;;;;10307028;28;75652;-58
2021/09/22 04:41:54;;;;;;;2.78;1.40;;;24.10;44.10;28.80;94850.00;;;;10309172;28;70811;-60
2021/09/22 04:46:55;;;;;;;1.85;1.65;;;24.10;44.10;28.80;94851.00;;;;10308232;28;75504;-60
2021/09/22 04:51:56;;;;;;;1.65;1.40;;;24.10;44.10;28.80;94854.00;;;;10308235;28;49914;-62
2021/09/22 04:56:56;;;;;;;2.40;1.55;;;24.10;44.10;28.80;94869.00;;;;10306752;28;74620;-62
2021/09/22 05:01:57;;;;;;;2.08;1.60;;;24.10;44.10;28.80;94860.00;;;;10306857;28;74473;-60
2021/09/22 05:06:58;;;;;;;2.50;1.50;;;24.10;44.10;28.80;94855.00;;;;10313442;28;74176;-60
2021/09/22 05:12:00;;;;;;;3.50;1.50;;;24.10;44.10;28.80;94858.00;;;;10315306;28;74351;-60
2021/09/22 05:17:01;;;;;;;1.75;1.42;;;24.10;44.20;28.80;94863.00;;;;10316076;28;45577;-60
2021/09/22 05:22:02;;;;;;;1.88;1.50;;;24.10;44.20;28.80;94885.00;;;;10316337;28;45399;-60
2021/09/22 05:27:06;;;;;;;3.15;1.67;;;24.10;44.30;28.80;94883.00;;;;10315033;28;45988;-60
2021/09/22 05:32:07;;;;;;;3.17;1.70;;;24.10;44.30;28.80;94880.00;;;;10315508;28;45901;-60
2021/09/22 05:37:08;;;;;;;2.67;1.40;;;24.10;44.40;28.80;94895.00;;;;10314786;28;45494;-60
2021/09/22 05:42:09;;;;;;;2.58;1.63;;;24.00;44.30;28.80;94905.00;;;;10313259;28;73860;-60
2021/09/22 05:47:09;;;;;;;1.90;1.50;;;24.10;44.40;28.80;94897.00;;;;10312278;28;75574;-60
2021/09/22 05:52:10;;;;;;;4.05;1.55;;;24.10;44.40;28.80;94908.00;;;;10314598;28;74274;-60
2021/09/22 05:57:11;;;;;;;2.47;1.70;;;24.10;44.50;28.80;94918.00;;;;10310582;28;75550;-60
2021/09/22 06:02:11;;;;;;;2.22;1.60;;;24.10;44.50;28.80;94918.00;;;;10272836;28;75554;-60
2021/09/22 06:07:12;;;;;;;2.17;1.65;;;24.10;44.50;28.80;94914.00;;;;10275836;28;54485;-60
2021/09/22 06:12:13;;;;;;;3.50;1.83;;;24.10;44.50;28.80;94917.00;;;;10295197;28;75446;-62
2021/09/22 06:17:14;;;;;;;2.28;1.58;;;24.10;44.50;28.80;94921.00;;;;10294381;28;75618;-60
2021/09/22 06:22:15;;;;;;;2.20;1.48;;;24.10;44.70;28.90;94918.00;;;;10248378;28;75706;-60
2021/09/22 06:27:16;;;;;;;2.33;1.63;;;24.10;44.60;28.80;94934.00;;;;10224607;28;45313;-60
2021/09/22 06:32:16;;;;;;;3.00;1.40;;;24.10;44.70;28.90;94937.00;;;;10314792;28;48323;-60
2021/09/22 06:37:17;;;;;;;2.13;1.33;;;24.10;44.70;28.90;94940.00;;;;10375884;23;46243;-61
2021/09/22 06:42:18;;;;;;;1.67;1.48;;;24.10;44.70;28.80;94939.00;;;;10368667;28;60506;-61
2021/09/22 06:47:18;;;;;;;2.50;1.70;;;24.10;44.70;28.90;94930.00;;;;10340273;28;46580;-61
2021/09/22 06:52:19;;;;;;;1.92;1.50;;;24.10;44.70;28.80;94929.00;;;;10327870;28;48258;-61
2021/09/22 06:57:20;;;;;;;2.20;1.70;;;24.10;44.70;28.90;94933.00;;;;10321466;28;72301;-61
2021/09/22 07:02:20;;;;;;;2.10;1.80;;;24.10;44.60;28.90;94926.00;;;;10291597;28;75516;-62
2021/09/22 07:07:21;;;;;;;2.00;1.58;;;24.10;44.60;28.90;94938.00;;;;10288846;28;45662;-61
2021/09/22 07:12:22;;;;;;;2.58;1.70;;;24.10;44.70;28.90;94939.00;;;;10290783;28;75648;-61
2021/09/22 07:17:23;;;;;;;1.95;1.63;;;24.10;44.60;28.90;94949.00;;;;10309587;28;74117;-62
2021/09/22 07:22:23;;;;;;;1.98;1.60;;;24.10;44.60;28.90;94937.00;;;;10310560;28;72205;-62
2021/09/22 07:27:24;;;;;;;2.60;1.75;;;24.10;44.30;28.90;94952.00;;;;10309329;28;75594;-61
2021/09/22 07:32:25;;;;;;;2.50;1.30;;;24.10;44.30;28.70;94954.00;;;;10310986;28;61819;-63
2021/09/22 07:37:25;;;;;;;2.28;1.35;;;24.20;44.10;28.60;94955.00;;;;10309432;28;73631;-63
2021/09/22 07:42:26;;;;;;;1.77;1.20;;;24.10;44.00;28.40;94940.00;;;;10327349;28;48032;-63
2021/09/22 07:47:27;;;;;;;1.90;1.20;;;24.00;44.30;28.30;94950.00;;;;10296738;28;74455;-63
2021/09/22 07:52:27;;;;;;;1.25;1.00;;;23.90;44.40;28.20;94952.00;;;;10292201;28;74417;-63
2021/09/22 07:57:28;;;;;;;1.95;1.17;;;23.90;44.70;28.10;94956.00;;;;10287183;28;74656;-63
2021/09/22 08:02:29;;;;;;;1.73;1.10;;;23.90;44.80;28.00;94951.00;;;;10286647;28;73629;-63
2021/09/22 08:07:30;;;;;;;1.55;1.20;;;23.90;44.90;28.00;94934.00;;;;10289751;28;66177;-63
2021/09/22 08:12:31;;;;;;;1.40;1.25;;;23.80;45.00;28.00;94945.00;;;;10284910;28;58487;-63
2021/09/22 08:17:31;;;;;;;1.65;1.20;;;23.80;45.00;28.00;94934.00;;;;10270377;28;46307;-64
2021/09/22 08:22:32;;;;;;;1.35;1.15;;;23.80;45.10;28.00;94949.00;;;;10285714;28;70322;-63
2021/09/22 08:27:33;;;;;;;1.65;1.23;;;23.80;45.10;28.00;94956.00;;;;10286412;28;53624;-63
2021/09/22 08:32:34;;;;;;;1.60;1.20;;;23.80;45.20;28.00;94947.00;;;;10288896;28;46191;-63
2021/09/22 08:37:35;;;;;;;2.35;1.20;;;23.80;45.20;28.00;94938.00;;;;10304759;28;45599;-63
2021/09/22 08:42:36;;;;;;;1.42;1.13;;;23.80;45.80;28.00;94948.00;;;;10307184;28;45327;-63
2021/09/22 08:47:40;;;;;;;1.48;1.25;;;23.80;45.20;28.00;94950.00;;;;10296884;28;45341;-63
2021/09/22 08:52:44;;;;;;;2.25;1.40;;;23.80;45.20;28.00;94942.00;;;;10297413;28;51978;-63
2021/09/22 08:57:45;;;;;;;1.65;1.20;;;23.80;45.20;28.00;94942.00;;;;10293246;28;45759;-63
2021/09/22 09:02:48;;;;;;;1.67;1.27;;;23.80;45.20;28.00;94953.00;;;;10294791;28;61888;-63
2021/09/22 09:07:57;;;;;;;1.65;1.33;;;23.80;45.20;28.00;94952.00;;;;10293497;28;46612;-63
2021/09/22 09:13:07;;;;;;;1.70;1.30;;;23.80;45.20;28.00;94955.00;;;;10291363;28;47216;-63
2021/09/22 09:18:22;;;;;;;1.60;1.10;;;23.80;45.20;28.00;94958.00;;;;10286929;28;45337;-65
2021/09/22 09:23:24;;;;;;;1.85;1.27;;;23.80;45.20;27.90;94948.00;;;;10289582;28;45544;-65
2021/09/22 09:28:30;;;;;;;1.88;1.23;;;23.80;45.20;28.00;94957.00;;;;10293373;28;46488;-65
2021/09/22 09:33:53;;;;;;;1.60;1.20;;;23.80;45.20;28.10;94930.00;;;;10273977;28;45656;-65
2021/09/22 09:39:11;;;;;;;1.60;1.20;;;23.80;45.20;28.00;94941.00;;;;10310395;28;45394;-64
2021/09/22 09:44:13;;;;;;;2.13;1.25;;;23.80;45.20;27.90;94920.00;;;;10314235;28;46519;-65
2021/09/22 09:49:17;;;;;;;1.80;1.42;;;23.80;45.20;27.90;94908.00;;;;10313951;28;45675;-65
2021/09/22 09:54:28;;;;;;;2.20;1.40;;;23.80;45.20;28.00;94921.00;;;;10314273;28;45401;-65
2021/09/22 09:59:48;;;;;;;2.17;1.30;;;23.80;45.20;28.00;94918.00;;;;10309248;28;48204;-65
2021/09/22 10:04:48;;;;;;;1.77;1.27;;;23.80;45.30;27.90;94917.00;;;;10311833;28;45361;-65
2021/09/22 10:09:50;;;;;;;1.33;1.08;;;23.80;45.20;28.00;94903.00;;;;10308202;28;68427;-65
2021/09/22 10:14:53;;;;;;;1.85;1.48;;;23.80;45.90;27.90;94912.00;;;;10314497;28;46543;-65
2021/09/22 10:19:55;;;;;;;1.70;1.30;;;23.80;45.20;28.00;94904.00;;;;10305306;28;55521;-65
2021/09/22 10:24:56;;;;;;;1.65;1.25;;;23.80;45.30;28.00;94895.00;;;;10283568;28;50192;-65
2021/09/22 10:30:00;;;;;;;1.55;1.08;;;23.80;45.20;28.00;94899.00;;;;10299004;28;45674;-65
2021/09/22 10:35:26;;;;;;;1.58;1.10;;;23.80;45.30;28.10;94886.00;;;;10295193;28;45312;-65
2021/09/22 10:40:38;;;;;;;1.90;1.50;;;23.80;45.30;28.00;94887.00;;;;10304398;28;46887;-65
2021/09/22 10:45:42;;;;;;;1.60;1.10;;;23.80;45.30;28.00;94881.00;;;;10273182;28;46475;-65
2021/09/22 10:50:48;;;;;;;1.90;1.23;;;23.80;45.30;28.00;94886.00;;;;10272555;28;45265;-65
2021/09/22 10:56:20;;;;;;;1.70;1.37;;;23.80;45.40;28.10;94876.00;;;;10272174;28;45514;-65
2021/09/22 11:01:36;;;;;;;1.60;1.30;;;23.80;45.40;28.10;94871.00;;;;10270448;28;47260;-65
2021/09/22 11:06:48;;;;;;;1.70;1.30;;;23.90;45.40;28.00;94858.00;;;;10291928;28;45483;-65
2021/09/22 11:12:01;;;;;;;2.35;1.30;;;23.80;45.40;28.00;94854.00;;;;10298677;28;46354;-65
2021/09/22 11:17:10;;;;;;;4.20;1.80;;;23.80;45.50;28.00;94846.00;;;;10327265;28;47243;-65
2021/09/22 11:22:22;;;;;;;3.17;1.88;;;23.90;45.60;28.10;94841.00;;;;10312296;28;45563;-65
2021/09/22 11:27:24;;;;;;;4.95;1.98;;;23.90;45.70;28.10;94840.00;;;;10311601;28;50013;-65
2021/09/22 11:32:44;;;;;;;5.13;2.00;;;23.90;45.70;28.20;94829.00;;;;10310808;28;45381;-65
2021/09/22 11:37:56;;;;;;;5.18;2.25;;;23.90;45.80;28.10;94825.00;;;;10307012;28;46079;-65
2021/09/22 11:43:13;;;;;;;3.90;1.90;;;23.90;45.80;28.10;94838.00;;;;10304159;28;45590;-65
2021/09/22 11:48:23;;;;;;;7.10;2.10;;;23.90;45.70;28.10;94831.00;;;;10280949;28;45624;-65
2021/09/22 11:53:30;;;;;;;5.25;1.95;;;23.90;45.80;28.10;94840.00;;;;10313930;28;55885;-65
2021/09/22 11:58:35;;;;;;;5.85;2.13;;;23.90;45.70;28.20;94833.00;;;;10302044;28;46405;-65
2021/09/22 12:03:38;;;;;;;4.88;2.05;;;23.90;45.70;28.20;94826.00;;;;10281416;28;47025;-65
2021/09/22 12:08:41;;;;;;;3.58;1.75;;;23.90;45.60;28.20;94822.00;;;;10269617;28;45600;-65
2021/09/22 12:13:45;;;;;;;3.92;1.80;;;24.00;45.60;28.20;94810.00;;;;10269121;28;47337;-67
2021/09/22 12:18:57;;;;;;;3.65;1.80;;;24.00;45.50;28.20;94799.00;;;;10268886;28;45444;-67
2021/09/22 12:24:06;;;;;;;5.10;1.75;;;24.00;45.60;28.20;94809.00;;;;10285051;28;51384;-67
2021/09/22 12:29:12;;;;;;;3.17;1.60;;;24.00;45.50;28.20;94790.00;;;;10287049;28;47245;-67
2021/09/22 12:34:24;;;;;;;2.95;1.55;;;24.00;45.40;28.30;94786.00;;;;10360917;28;47378;-66
2021/09/22 12:39:28;;;;;;;3.35;1.55;;;24.00;45.40;28.20;94781.00;;;;10327041;23;47534;-64
2021/09/22 12:44:50;;;;;;;2.70;1.70;;;24.00;45.40;28.20;94786.00;;;;10286936;28;48046;-62
2021/09/22 12:50:08;;;;;;;3.47;1.77;;;24.10;45.30;28.30;94776.00;;;;10226806;28;48484;-61
2021/09/22 12:55:29;;;;;;;3.65;1.75;;;24.10;45.20;28.30;94764.00;;;;10228494;28;46190;-63
2021/09/22 13:01:02;;;;;;;3.85;1.60;;;24.10;45.10;28.40;94776.00;;;;10228692;28;45459;-64
2021/09/22 13:06:23;;;;;;;1.63;1.20;;;24.10;45.10;28.30;94755.00;;;;10227598;28;45722;-64
2021/09/22 13:11:41;;;;;;;4.40;1.73;;;24.00;45.00;28.30;94768.00;;;;10229726;28;45611;-64
2021/09/22 13:16:54;;;;;;;2.65;1.70;;;24.10;45.00;28.20;94748.00;;;;10242384;28;45430;-63
2021/09/22 13:21:58;;;;;;;1.80;1.20;;;24.10;45.00;28.20;94755.00;;;;10228311;28;46464;-64
2021/09/22 13:27:01;;;;;;;2.20;1.23;;;24.10;44.90;28.20;94736.00;;;;10231395;28;45505;-63
2021/09/22 13:32:05;;;;;;;1.70;1.33;;;24.10;44.60;28.20;94741.00;;;;10234118;28;46567;-63
2021/09/22 13:37:07;;;;;;;2.63;1.30;;;24.10;44.50;28.30;94741.00;;;;10233501;28;46752;-64
2021/09/22 13:42:08;;;;;;;2.63;1.50;;;24.10;44.30;28.30;94751.00;;;;10234054;28;46084;-64
2021/09/22 13:47:09;;;;;;;1.85;1.23;;;24.10;44.10;28.30;94744.00;;;;10233929;28;45486;-64
2021/09/22 13:52:10;;;;;;;2.22;1.15;;;24.10;44.00;28.30;94748.00;;;;10232481;28;74505;-64
2021/09/22 13:57:11;;;;;;;1.90;1.15;;;24.10;43.90;28.30;94739.00;;;;10233549;28;45596;-63
2021/09/22 14:02:12;;;;;;;3.00;1.20;;;24.10;43.80;28.30;94746.00;;;;10233830;28;74548;-64
2021/09/22 14:07:15;;;;;;;3.03;1.20;;;24.10;43.60;28.30;94740.00;;;;10214666;28;75151;-63
2021/09/22 14:12:16;;;;;;;1.20;0.98;;;24.10;43.60;28.30;94738.00;;;;10216766;28;47353;-63
2021/09/22 14:17:17;;;;;;;1.98;1.17;;;24.10;43.40;28.30;94730.00;;;;10232855;28;76135;-64
2021/09/22 14:22:17;;;;;;;1.88;0.90;;;24.10;43.40;28.30;94736.00;;;;10231456;28;75216;-63
2021/09/22 14:27:18;;;;;;;2.30;1.00;;;24.10;43.40;28.30;94737.00;;;;10230934;28;75039;-63
2021/09/22 14:32:19;;;;;;;1.73;0.77;;;24.10;43.10;28.30;94740.00;;;;10232570;28;45528;-63
2021/09/22 14:37:19;;;;;;;1.50;1.05;;;24.10;43.00;28.30;94724.00;;;;10229212;28;73715;-64
2021/09/22 14:42:20;;;;;;;1.10;0.90;;;24.10;42.90;28.30;94718.00;;;;10232491;28;75744;-63
2021/09/22 14:47:20;;;;;;;1.83;0.90;;;24.10;42.80;28.30;94725.00;;;;10230548;28;74034;-63
2021/09/22 14:52:21;;;;;;;1.23;0.90;;;24.10;42.60;28.30;94724.00;;;;10190560;28;75358;-64
2021/09/22 14:57:22;;;;;;;1.20;0.80;;;24.10;42.80;28.30;94719.00;;;;10250347;28;74523;-64
2021/09/22 15:02:23;;;;;;;1.27;0.80;;;24.10;42.90;28.30;94704.00;;;;10248028;28;75617;-63
2021/09/22 15:07:24;;;;;;;1.60;0.80;;;24.10;43.10;28.30;94699.00;;;;10266659;28;50016;-64
2021/09/22 15:12:24;;;;;;;1.05;0.70;;;24.10;43.10;28.30;94709.00;;;;10235768;28;64517;-63
2021/09/22 15:17:25;;;;;;;1.05;0.70;;;24.10;43.30;28.30;94703.00;;;;10253246;28;69223;-63
2021/09/22 15:22:26;;;;;;;2.20;0.88;;;24.10;43.30;28.30;94701.00;;;;10270967;28;54808;-63
2021/09/22 15:27:26;;;;;;;1.80;0.90;;;24.10;43.40;28.20;94684.00;;;;10268583;28;66295;-64
2021/09/22 15:32:28;;;;;;;1.30;0.73;;;24.10;43.60;28.30;94691.00;;;;10268305;28;74345;-63
2021/09/22 15:37:29;;;;;;;1.75;0.77;;;24.10;43.60;28.30;94700.00;;;;10270291;28;45384;-63
2021/09/22 15:42:31;;;;;;;1.17;0.90;;;24.10;43.70;28.20;94678.00;;;;10270638;28;46254;-62
2021/09/22 15:47:31;;;;;;;0.82;0.57;;;24.10;43.90;28.20;94685.00;;;;10269975;28;45402;-63
2021/09/22 15:52:32;;;;;;;1.77;0.82;;;24.10;44.00;28.20;94698.00;;;;10248701;28;75307;-64
2021/09/22 15:57:34;;;;;;;1.98;0.80;;;24.10;44.00;28.20;94696.00;;;;10266261;28;74594;-71
2021/09/22 16:02:41;;;;;;;1.65;0.80;;;24.10;44.20;28.30;94683.00;;;;10263623;28;49073;-68
2021/09/22 16:07:44;;;;;;;1.75;0.80;;;24.10;44.70;28.30;94690.00;;;;10230023;28;45613;-68
2021/09/22 16:12:45;;;;;;;1.33;0.88;;;24.20;44.90;28.30;94671.00;;;;10255847;28;47579;-70
2021/09/22 16:17:46;;;;;;;0.77;0.70;;;24.20;45.00;28.40;94668.00;;;;10269366;28;45501;-70
2021/09/22 16:22:50;;;;;;;1.70;0.80;;;24.30;45.10;28.40;94679.00;;;;10256571;28;74181;-73
2021/09/22 16:27:51;;;;;;;3.42;0.80;;;24.30;45.20;28.50;94673.00;;;;10234006;28;47557;-71
2021/09/22 16:32:53;;;;;;;1.30;0.90;;;24.30;45.50;28.50;94677.00;;;;10269126;28;46097;-67
2021/09/22 16:37:53;;;;;;;1.40;0.90;;;24.30;45.50;28.50;94663.00;;;;10265952;28;45440;-66
2021/09/22 16:42:54;;;;;;;2.45;0.95;;;24.40;45.60;28.50;94657.00;;;;10263404;28;75176;-67
2021/09/22 16:47:56;;;;;;;2.50;0.90;;;24.40;45.80;28.40;94661.00;;;;10193129;28;72733;-70
2021/09/22 16:52:57;;;;;;;2.33;1.00;;;24.30;45.40;28.30;94671.00;;;;10185144;28;73644;-64
2021/09/22 16:57:57;;;;;;;1.40;1.10;;;24.30;43.00;28.40;94673.00;;;;10170839;28;48085;-65
2021/09/22 17:02:59;;;;;;;1.85;1.00;;;24.30;43.90;28.40;94669.00;;;;10192343;28;45588;-65
2021/09/22 17:08:03;;;;;;;1.23;1.00;;;24.20;44.00;28.30;94667.00;;;;10177209;28;47570;-65
2021/09/22 17:13:06;;;;;;;3.60;0.90;;;24.20;44.10;28.30;94673.00;;;;10192871;28;49574;-65
2021/09/22 17:18:07;;;;;;;1.25;0.90;;;24.10;44.20;28.30;94678.00;;;;10192167;28;47298;-71
2021/09/22 17:23:08;;;;;;;1.35;1.00;;;24.10;44.50;28.30;94684.00;;;;10178326;28;48373;-68
2021/09/22 17:28:09;;;;;;;1.85;0.80;;;24.20;45.00;28.40;94689.00;;;;10191861;28;45389;-65
2021/09/22 17:33:10;;;;;;;2.65;1.00;;;24.20;44.80;28.30;94683.00;;;;10192095;28;45269;-62
2021/09/22 17:38:10;;;;;;;1.80;0.80;;;24.20;44.50;28.30;94680.00;;;;10175295;28;45653;-63
2021/09/22 17:43:11;;;;;;;1.50;0.70;;;24.10;44.40;28.30;94688.00;;;;10178143;28;46224;-63
2021/09/22 17:48:12;;;;;;;2.67;1.00;;;24.10;44.50;28.30;94676.00;;;;10175947;28;45321;-63
2021/09/22 17:53:13;;;;;;;1.17;0.70;;;24.10;44.50;28.30;94689.00;;;;10173794;28;59014;-63
2021/09/22 17:58:13;;;;;;;1.10;0.70;;;24.10;44.60;28.30;94684.00;;;;10157111;28;75322;-62
2021/09/22 18:03:15;;;;;;;1.15;0.80;;;24.10;44.70;28.30;94683.00;;;;10170224;28;61991;-63
2021/09/22 18:08:15;;;;;;;2.25;0.90;;;24.10;44.70;28.30;94703.00;;;;10153790;29;50651;-63
2021/09/22 18:13:17;;;;;;;1.48;0.73;;;24.10;44.80;28.30;94699.00;;;;10166958;28;75631;-62
2021/09/22 18:18:19;;;;;;;1.73;0.90;;;24.10;44.80;28.30;94696.00;;;;10184858;28;45286;-63
2021/09/22 18:23:20;;;;;;;1.15;0.80;;;24.10;44.80;28.30;94695.00;;;;10176720;28;47998;-62
2021/09/22 18:28:20;;;;;;;1.40;0.88;;;24.10;44.80;28.30;94697.00;;;;10191626;28;45403;-63
2021/09/22 18:33:22;;;;;;;2.08;1.00;;;24.10;44.90;28.30;94682.00;;;;10191535;28;56146;-63
2021/09/22 18:38:23;;;;;;;1.42;0.70;;;24.10;44.80;28.30;94685.00;;;;10225014;23;46850;-62
2021/09/22 18:43:24;;;;;;;1.73;0.73;;;24.10;44.80;28.20;94688.00;;;;10230336;28;45731;-62
2021/09/22 18:48:24;;;;;;;1.00;0.70;;;24.10;44.90;28.30;94683.00;;;;10227781;28;75582;-62
2021/09/22 18:53:25;;;;;;;1.25;0.70;;;24.10;44.90;28.20;94675.00;;;;10213713;28;47163;-62
2021/09/22 18:58:26;;;;;;;1.83;0.73;;;24.00;44.90;28.20;94690.00;;;;10227964;28;74268;-62
2021/09/22 19:03:26;;;;;;;1.23;0.80;;;24.10;44.90;28.20;94674.00;;;;10246049;28;46348;-62
2021/09/22 19:08:27;;;;;;;1.20;0.70;;;24.00;44.80;28.20;94681.00;;;;10269721;28;49072;-62
2021/09/22 19:13:28;;;;;;;1.00;0.80;;;24.00;44.90;28.20;94677.00;;;;10269435;28;45335;-62
2021/09/22 19:18:30;;;;;;;1.60;0.60;;;24.00;44.80;28.20;94678.00;;;;10269083;28;45425;-62
2021/09/22 19:23:30;;;;;;;0.98;0.70;;;24.00;44.80;28.20;94682.00;;;;10268193;28;74219;-62
2021/09/22 19:28:31;;;;;;;1.15;0.70;;;24.00;44.80;28.20;94674.00;;;;10263273;28;74510;-62
2021/09/22 19:33:35;;;;;;;1.10;0.70;;;24.00;44.80;28.20;94660.00;;;;10250565;28;74685;-62
2021/09/22 19:38:36;;;;;;;0.68;0.63;;;24.00;44.80;28.20;94659.00;;;;10268024;28;45792;-62
2021/09/22 19:43:37;;;;;;;0.98;0.65;;;24.00;44.80;28.20;94657.00;;;;10268441;28;63718;-61
2021/09/22 19:48:38;;;;;;;0.80;0.60;;;24.00;44.90;28.20;94651.00;;;;10267110;28;58992;-62
2021/09/22 19:53:38;;;;;;;0.90;0.70;;;24.00;44.90;28.20;94655.00;;;;10256463;28;75275;-62
2021/09/22 19:58:40;;;;;;;0.75;0.70;;;24.00;44.80;28.20;94639.00;;;;10265115;28;45625;-63
2021/09/22 20:03:41;;;;;;;1.10;0.70;;;24.00;44.80;28.20;94648.00;;;;10252926;28;47310;-62
2021/09/22 20:08:41;;;;;;;1.00;0.65;;;24.00;44.80;28.20;94643.00;;;;10268295;28;75256;-62
2021/09/22 20:13:42;;;;;;;1.20;0.95;;;24.00;44.80;28.20;94641.00;;;;10268410;28;74427;-62
2021/09/22 20:18:43;;;;;;;0.82;0.80;;;24.00;44.80;28.20;94642.00;;;;10268407;28;72778;-62
2021/09/22 20:23:44;;;;;;;0.90;0.75;;;24.00;44.80;28.20;94636.00;;;;10268386;28;65951;-62
2021/09/22 20:28:48;;;;;;;2.70;0.63;;;23.90;44.80;28.20;94628.00;;;;10267826;28;56472;-63
2021/09/22 20:33:49;;;;;;;0.88;0.70;;;24.00;44.80;28.10;94624.00;;;;10268642;28;45714;-62
2021/09/22 20:38:50;;;;;;;0.80;0.60;;;23.90;44.70;28.20;94638.00;;;;10268033;28;52333;-62
2021/09/22 20:43:52;;;;;;;1.00;0.70;;;23.90;44.80;28.10;94626.00;;;;10252771;28;47293;-62
2021/09/22 20:48:55;;;;;;;0.80;0.60;;;23.90;44.70;28.10;94626.00;;;;10269371;28;45459;-62
2021/09/22 20:53:56;;;;;;;0.75;0.60;;;23.90;44.70;28.10;94628.00;;;;10268090;28;47399;-62
2021/09/22 20:58:57;;;;;;;1.15;0.80;;;23.90;44.70;28.10;94628.00;;;;10267078;28;74408;-62
2021/09/22 21:03:57;;;;;;;0.98;0.73;;;23.90;44.60;28.10;94618.00;;;;10267902;28;48107;-62
2021/09/22 21:08:58;;;;;;;0.80;0.75;;;23.90;44.70;28.10;94618.00;;;;10268041;28;75280;-62
2021/09/22 21:13:59;;;;;;;0.90;0.65;;;23.90;44.60;28.10;94624.00;;;;10268135;28;74359;-62
2021/09/22 21:18:59;;;;;;;0.90;0.70;;;23.90;44.60;28.10;94624.00;;;;10267632;28;45455;-62
2021/09/22 21:24:00;;;;;;;0.93;0.73;;;23.90;44.60;28.10;94627.00;;;;10267854;28;75706;-62
2021/09/22 21:29:01;;;;;;;0.85;0.80;;;23.90;44.60;28.10;94617.00;;;;10267133;28;47195;-62
2021/09/22 21:34:03;;;;;;;1.08;0.77;;;23.90;44.60;28.10;94625.00;;;;10267463;28;45390;-62
2021/09/22 21:39:05;;;;;;;0.98;0.80;;;23.90;44.60;28.10;94627.00;;;;10266629;28;45495;-62
2021/09/22 21:44:06;;;;;;;0.90;0.60;;;23.90;44.60;28.10;94611.00;;;;10266720;28;52364;-62
2021/09/22 21:49:06;;;;;;;0.98;0.70;;;23.90;44.60;28.10;94634.00;;;;10272649;28;75568;-62
2021/09/22 21:54:07;;;;;;;0.98;0.70;;;23.80;44.60;28.10;94618.00;;;;10272892;28;75454;-62
2021/09/22 21:59:08;;;;;;;0.90;0.80;;;23.90;44.60;28.10;94606.00;;;;10257128;28;47126;-62
2021/09/22 22:04:08;;;;;;;0.80;0.80;;;23.90;44.60;28.10;94603.00;;;;10273374;28;51233;-62
2021/09/22 22:09:11;;;;;;;1.30;0.80;;;23.90;44.60;28.00;94607.00;;;;10255185;28;75567;-62